Time;durP1;ratioP1;P1;durP2;ratioP2;P2;SDS_P1;SDS_P2;PMS_P1;PMS_P2;Temp;Humidity;BMP_temperature;BMP_pressure;BME280_temperature;BME280_humidity;BME280_pressure;Samples;Min_cycle;Max_cycle;Signal;HPM_P1;HPM_P2
2023/01/02 00:00:47;;;;;;;16.25;7.20;;;;;;;;;;4989936;28;99447;-75
2023/01/02 00:03:14;;;;;;;20.88;7.93;;;;;;;;;;4989640;28;98677;-75
2023/01/02 00:05:40;;;;;;;8.98;6.57;;;;;;;;;;4990312;28;99631;-76
2023/01/02 00:08:06;;;;;;;14.88;7.25;;;;;;;;;;4990220;28;100179;-76
2023/01/02 00:10:33;;;;;;;19.00;7.30;;;;;;;;;;4989122;28;98333;-75
2023/01/02 00:12:59;;;;;;;18.85;7.55;;;;;;;;;;4989467;28;99643;-75
2023/01/02 00:15:26;;;;;;;11.85;7.05;;;;;;;;;;4989288;28;100317;-76
2023/01/02 00:17:52;;;;;;;12.68;6.93;;;;;;;;;;4993363;28;98348;-75
2023/01/02 00:20:18;;;;;;;16.35;6.65;;;;;;;;;;4989909;28;99262;-75
2023/01/02 00:22:45;;;;;;;10.50;7.32;;;;;;;;;;4988974;28;98381;-76
2023/01/02 00:25:11;;;;;;;23.67;8.23;;;;;;;;;;4990119;28;98488;-75
2023/01/02 00:27:37;;;;;;;12.60;7.50;;;;;;;;;;4989435;28;100262;-76
2023/01/02 00:30:04;;;;;;;16.15;7.85;;;;;;;;;;4989546;28;98334;-76
2023/01/02 00:32:30;;;;;;;17.38;7.57;;;;;;;;;;4990062;28;98565;-75
2023/01/02 00:34:57;;;;;;;16.90;7.90;;;;;;;;;;4990139;28;99065;-76
2023/01/02 00:37:23;;;;;;;14.90;8.48;;;;;;;;;;4988108;28;98309;-76
2023/01/02 00:39:50;;;;;;;19.08;9.27;;;;;;;;;;4993028;28;99305;-76
2023/01/02 00:42:16;;;;;;;14.30;8.07;;;;;;;;;;4989725;28;98318;-77
2023/01/02 00:44:42;;;;;;;19.05;9.68;;;;;;;;;;4988825;28;98676;-77
2023/01/02 00:47:09;;;;;;;14.10;8.23;;;;;;;;;;4989797;28;100481;-75
2023/01/02 00:49:35;;;;;;;21.08;8.23;;;;;;;;;;4989469;28;98334;-76
2023/01/02 00:52:01;;;;;;;18.63;9.02;;;;;;;;;;4988732;28;99366;-75
2023/01/02 00:54:28;;;;;;;18.42;8.57;;;;;;;;;;4989377;28;99861;-75
2023/01/02 00:56:55;;;;;;;18.48;8.77;;;;;;;;;;4989831;28;98333;-75
2023/01/02 00:59:21;;;;;;;13.85;7.75;;;;;;;;;;4991982;28;99677;-76
2023/01/02 01:01:47;;;;;;;16.95;8.55;;;;;;;;;;4988448;28;98290;-77
2023/01/02 01:04:14;;;;;;;21.20;9.20;;;;;;;;;;4989494;28;99313;-76
2023/01/02 01:06:40;;;;;;;10.63;8.07;;;;;;;;;;4988325;28;100498;-75
2023/01/02 01:09:07;;;;;;;12.80;7.82;;;;;;;;;;4989155;28;98344;-77
2023/01/02 01:11:33;;;;;;;16.02;9.07;;;;;;;;;;4989153;28;99538;-77
2023/01/02 01:14:01;;;;;;;17.88;8.95;;;;;;;;;;4988671;28;99849;-77
2023/01/02 01:16:27;;;;;;;19.02;8.73;;;;;;;;;;4989109;28;98336;-77
2023/01/02 01:18:54;;;;;;;18.30;8.68;;;;;;;;;;4989298;28;98457;-75
2023/01/02 01:21:21;;;;;;;11.13;7.50;;;;;;;;;;4992542;28;100136;-75
2023/01/02 01:23:51;;;;;;;13.88;7.15;;;;;;;;;;4988985;28;99421;-76
2023/01/02 01:26:18;;;;;;;12.75;7.40;;;;;;;;;;4987428;28;99978;-75
2023/01/02 01:28:44;;;;;;;18.15;7.95;;;;;;;;;;4988801;28;98358;-75
2023/01/02 01:31:12;;;;;;;11.50;7.18;;;;;;;;;;4989613;28;98543;-75
2023/01/02 01:33:39;;;;;;;14.43;7.45;;;;;;;;;;4988051;28;100168;-76
2023/01/02 01:36:10;;;;;;;9.90;6.47;;;;;;;;;;4989153;28;98305;-76
2023/01/02 01:38:36;;;;;;;19.85;7.50;;;;;;;;;;4988632;28;98632;-76
2023/01/02 01:41:04;;;;;;;20.60;7.53;;;;;;;;;;4988368;28;99067;-76
2023/01/02 01:43:50;;;;;;;17.73;7.78;;;;;;;;;;4992116;28;98285;-76
2023/01/02 01:46:28;;;;;;;15.77;8.05;;;;;;;;;;4988344;28;100311;-76
2023/01/02 01:49:03;;;;;;;17.85;8.70;;;;;;;;;;4987990;28;98319;-77
2023/01/02 01:51:29;;;;;;;18.15;8.02;;;;;;;;;;4987645;28;99429;-77
2023/01/02 01:54:04;;;;;;;17.45;7.38;;;;;;;;;;4988115;28;99733;-75
2023/01/02 01:56:32;;;;;;;12.77;7.35;;;;;;;;;;4988173;28;98265;-75
2023/01/02 01:58:58;;;;;;;11.25;7.75;;;;;;;;;;4988906;28;98476;-76
2023/01/02 02:01:24;;;;;;;15.35;7.28;;;;;;;;;;4987400;28;100182;-76
2023/01/02 02:03:51;;;;;;;16.50;7.97;;;;;;;;;;4988592;28;98293;-76
2023/01/02 02:06:18;;;;;;;16.40;7.85;;;;;;;;;;4992063;28;98730;-77
2023/01/02 02:08:56;;;;;;;14.90;8.38;;;;;;;;;;4987831;28;98511;-76
2023/01/02 02:11:22;;;;;;;14.50;7.70;;;;;;;;;;4988536;28;99367;-76
2023/01/02 02:13:49;;;;;;;15.05;7.72;;;;;;;;;;4988647;28;99120;-76
2023/01/02 02:16:15;;;;;;;15.18;8.63;;;;;;;;;;4986158;28;98467;-76
2023/01/02 02:18:54;;;;;;;16.25;8.57;;;;;;;;;;4988207;28;99501;-76
2023/01/02 02:21:49;;;;;;;13.85;8.57;;;;;;;;;;4988402;28;99040;-76
2023/01/02 02:24:24;;;;;;;20.85;8.52;;;;;;;;;;4987656;28;98147;-76
2023/01/02 02:26:52;;;;;;;21.95;8.90;;;;;;;;;;4988738;28;99244;-76
2023/01/02 02:29:37;;;;;;;15.88;8.50;;;;;;;;;;4990717;28;100392;-76
2023/01/02 02:32:03;;;;;;;18.35;9.30;;;;;;;;;;4988220;28;98756;-75
2023/01/02 02:34:38;;;;;;;13.25;9.95;;;;;;;;;;4987921;28;99963;-76
2023/01/02 02:37:12;;;;;;;26.00;9.70;;;;;;;;;;4987428;28;98383;-77
2023/01/02 02:40:01;;;;;;;18.58;8.40;;;;;;;;;;4987793;28;99540;-77
2023/01/02 02:42:34;;;;;;;18.20;8.85;;;;;;;;;;4983852;28;99099;-76
2023/01/02 02:45:04;;;;;;;18.30;7.88;;;;;;;;;;4989152;28;98145;-77
2023/01/02 02:47:34;;;;;;;15.88;7.85;;;;;;;;;;4990331;28;98907;-78
2023/01/02 02:50:00;;;;;;;12.98;7.45;;;;;;;;;;4987965;28;101399;-77
2023/01/02 02:52:37;;;;;;;11.02;6.55;;;;;;;;;;4990460;28;98078;-77
2023/01/02 02:55:09;;;;;;;13.23;7.07;;;;;;;;;;4987503;28;100002;-77
2023/01/02 02:57:36;;;;;;;10.18;6.25;;;;;;;;;;4986941;28;98367;-77
2023/01/02 03:00:05;;;;;;;17.23;6.68;;;;;;;;;;4988194;28;99635;-77
2023/01/02 03:02:31;;;;;;;13.38;7.43;;;;;;;;;;4987241;28;99989;-77
2023/01/02 03:05:01;;;;;;;20.95;6.57;;;;;;;;;;4987223;28;98310;-77
2023/01/02 03:07:27;;;;;;;10.88;6.75;;;;;;;;;;4986145;28;98715;-77
2023/01/02 03:10:12;;;;;;;12.73;6.93;;;;;;;;;;4987056;28;99129;-77
2023/01/02 03:12:38;;;;;;;13.48;6.15;;;;;;;;;;4989966;28;98289;-77
2023/01/02 03:15:23;;;;;;;16.35;6.43;;;;;;;;;;4987341;28;99221;-77
2023/01/02 03:17:49;;;;;;;15.18;6.45;;;;;;;;;;4987300;28;98281;-77
2023/01/02 03:20:18;;;;;;;15.07;6.15;;;;;;;;;;4987075;28;99767;-77
2023/01/02 03:22:49;;;;;;;16.27;5.93;;;;;;;;;;4986749;28;100213;-77
2023/01/02 03:25:15;;;;;;;14.15;5.50;;;;;;;;;;4987600;28;98619;-77
2023/01/02 03:27:44;;;;;;;14.23;5.40;;;;;;;;;;4985651;28;98861;-77
2023/01/02 03:30:13;;;;;;;14.68;6.40;;;;;;;;;;4986910;28;100632;-77
2023/01/02 03:32:46;;;;;;;19.20;6.20;;;;;;;;;;4985587;28;98886;-77
2023/01/02 03:35:14;;;;;;;;;;;;;;;;;;4990920;28;98774;-77
2023/01/02 03:37:43;;;;;;;9.05;4.57;;;;;;;;;;4985868;28;123874;-77
2023/01/02 03:40:12;;;;;;;15.50;6.22;;;;;;;;;;4986620;28;99592;-77
2023/01/02 03:42:41;;;;;;;9.25;5.57;;;;;;;;;;4986278;28;100128;-77
2023/01/02 03:45:21;;;;;;;14.05;5.47;;;;;;;;;;4987158;28;98301;-76
2023/01/02 03:47:52;;;;;;;9.63;5.65;;;;;;;;;;4986150;28;99551;-76
2023/01/02 03:50:21;;;;;;;15.50;6.05;;;;;;;;;;4987123;28;100077;-75
2023/01/02 03:52:48;;;;;;;11.77;5.30;;;;;;;;;;4986494;28;98398;-75
2023/01/02 03:55:15;;;;;;;10.63;5.10;;;;;;;;;;4986419;28;99386;-75
2023/01/02 03:57:48;;;;;;;10.80;5.40;;;;;;;;;;4989004;28;99919;-76
2023/01/02 04:00:23;;;;;;;14.43;5.00;;;;;;;;;;4987156;28;98788;-76
2023/01/02 04:02:52;;;;;;;12.50;5.03;;;;;;;;;;4986530;28;99318;-76
2023/01/02 04:05:21;;;;;;;12.80;5.10;;;;;;;;;;4986969;28;98739;-76
2023/01/02 04:08:02;;;;;;;17.33;5.10;;;;;;;;;;4986069;28;99672;-76
2023/01/02 04:10:29;;;;;;;11.02;4.72;;;;;;;;;;4986161;28;99208;-76
2023/01/02 04:13:01;;;;;;;18.60;5.90;;;;;;;;;;4987338;28;98902;-76
2023/01/02 04:15:28;;;;;;;14.80;5.83;;;;;;;;;;4986581;28;99036;-76
2023/01/02 04:17:58;;;;;;;15.88;6.55;;;;;;;;;;4986815;28;98924;-76
2023/01/02 04:20:33;;;;;;;8.80;4.60;;;;;;;;;;4989674;28;98414;-76
2023/01/02 04:23:01;;;;;;;13.02;4.75;;;;;;;;;;4985266;28;100123;-76
2023/01/02 04:25:31;;;;;;;10.02;4.22;;;;;;;;;;4986294;28;99402;-76
2023/01/02 04:27:59;;;;;;;9.50;4.47;;;;;;;;;;4986726;28;99350;-76
2023/01/02 04:30:27;;;;;;;9.75;4.53;;;;;;;;;;4985747;28;100285;-76
2023/01/02 04:32:56;;;;;;;15.93;4.78;;;;;;;;;;4986725;28;98510;-76
2023/01/02 04:35:23;;;;;;;10.32;5.22;;;;;;;;;;4986446;28;98434;-75
2023/01/02 04:37:49;;;;;;;9.00;4.85;;;;;;;;;;4986794;28;99318;-76
2023/01/02 04:40:27;;;;;;;10.68;5.20;;;;;;;;;;4990098;28;98504;-76
2023/01/02 04:42:53;;;;;;;16.00;5.57;;;;;;;;;;4992425;28;99574;-77
2023/01/02 04:45:20;;;;;;;10.30;5.05;;;;;;;;;;4989965;28;98276;-76
2023/01/02 04:47:47;;;;;;;11.27;5.63;;;;;;;;;;4988933;28;99469;-76
2023/01/02 04:50:14;;;;;;;10.20;4.85;;;;;;;;;;4989116;28;100202;-76
2023/01/02 04:52:40;;;;;;;9.10;4.80;;;;;;;;;;4989827;28;98109;-76
2023/01/02 04:55:08;;;;;;;14.80;6.05;;;;;;;;;;4990009;28;99396;-76
2023/01/02 04:57:35;;;;;;;11.88;5.85;;;;;;;;;;4988930;28;100013;-76
2023/01/02 05:00:03;;;;;;;9.95;5.43;;;;;;;;;;4989796;28;98665;-76
2023/01/02 05:02:33;;;;;;;14.75;6.35;;;;;;;;;;4989448;28;99526;-76
2023/01/02 05:04:59;;;;;;;12.23;6.07;;;;;;;;;;4991684;28;98217;-76
2023/01/02 05:07:26;;;;;;;11.35;6.90;;;;;;;;;;4989175;28;99158;-76
2023/01/02 05:09:52;;;;;;;12.25;5.53;;;;;;;;;;4989080;28;100051;-76
2023/01/02 05:12:18;;;;;;;7.95;5.95;;;;;;;;;;4988142;28;98317;-76
2023/01/02 05:14:44;;;;;;;12.20;6.03;;;;;;;;;;4988962;28;100457;-76
2023/01/02 05:17:11;;;;;;;11.88;6.00;;;;;;;;;;4989164;28;100180;-75
2023/01/02 05:19:37;;;;;;;15.00;5.60;;;;;;;;;;4988841;28;98473;-76
2023/01/02 05:24:48;;;;;;;9.80;5.43;;;;;;;;;;4992106;28;99906;-76
2023/01/02 05:27:15;;;;;;;9.00;5.82;;;;;;;;;;4989047;28;98742;-76
2023/01/02 05:29:41;;;;;;;10.98;6.80;;;;;;;;;;4989067;28;99021;-76
2023/01/02 05:32:07;;;;;;;10.25;6.25;;;;;;;;;;4988488;28;98337;-76
2023/01/02 05:34:34;;;;;;;17.15;6.85;;;;;;;;;;4988977;28;99358;-76
2023/01/02 05:37:00;;;;;;;8.45;5.40;;;;;;;;;;4988057;28;100092;-77
2023/01/02 05:39:26;;;;;;;9.82;5.45;;;;;;;;;;4987704;28;98909;-77
2023/01/02 05:41:53;;;;;;;16.92;6.38;;;;;;;;;;4989094;28;99748;-76
2023/01/02 05:44:19;;;;;;;13.40;6.70;;;;;;;;;;4988694;28;99135;-76
2023/01/02 05:46:45;;;;;;;11.93;6.05;;;;;;;;;;4991783;28;98332;-76
2023/01/02 05:49:12;;;;;;;8.95;6.40;;;;;;;;;;4988300;28;98984;-76
2023/01/02 05:51:38;;;;;;;14.00;7.00;;;;;;;;;;4988468;28;98303;-78
2023/01/02 05:54:05;;;;;;;16.38;7.97;;;;;;;;;;4988527;28;98846;-78
2023/01/02 05:56:31;;;;;;;2.85;2.45;;;;;;;;;;4988770;28;98947;-78
2023/01/02 05:58:58;;;;;;;2.17;1.48;;;;;;;;;;4989607;28;98296;-79
2023/01/02 06:01:25;;;;;;;1.52;1.42;;;;;;;;;;4987271;28;99623;-78
2023/01/02 06:03:53;;;;;;;1.40;1.40;;;;;;;;;;4988636;28;100238;-79
2023/01/02 06:06:20;;;;;;;1.80;1.70;;;;;;;;;;4988993;28;98297;-79
2023/01/02 06:08:47;;;;;;;2.42;2.33;;;;;;;;;;4990746;28;99470;-81
2023/01/02 06:11:13;;;;;;;1.92;1.83;;;;;;;;;;4989174;28;98148;-81
2023/01/02 06:13:40;;;;;;;1.58;1.58;;;;;;;;;;4988914;28;100088;-79
2023/01/02 06:16:07;;;;;;;2.25;2.10;;;;;;;;;;4988260;28;99501;-79
2023/01/02 06:18:35;;;;;;;2.40;2.30;;;;;;;;;;4988949;28;98094;-79
2023/01/02 06:21:03;;;;;;;2.40;2.30;;;;;;;;;;4989618;28;99617;-78
2023/01/02 06:23:29;;;;;;;2.30;2.20;;;;;;;;;;4989869;28;99308;-78
2023/01/02 06:26:01;;;;;;;3.00;2.80;;;;;;;;;;4990562;28;98671;-77
2023/01/02 06:28:27;;;;;;;3.20;2.90;;;;;;;;;;4989806;28;98794;-77
2023/01/02 06:30:58;;;;;;;4.25;2.92;;;;;;;;;;4991992;28;99344;-77
2023/01/02 06:33:24;;;;;;;3.70;3.50;;;;;;;;;;4988839;28;98497;-77
2023/01/02 06:36:00;;;;;;;3.65;3.40;;;;;;;;;;4987740;28;99995;-77
2023/01/02 06:38:27;;;;;;;4.10;3.78;;;;;;;;;;4988630;28;98271;-77
2023/01/02 06:40:54;;;;;;;4.45;4.15;;;;;;;;;;4988640;28;99620;-77
2023/01/02 06:43:20;;;;;;;4.53;4.32;;;;;;;;;;4987628;28;100042;-77
2023/01/02 06:45:47;;;;;;;4.28;4.05;;;;;;;;;;4988187;28;98871;-77
2023/01/02 06:48:13;;;;;;;4.93;4.53;;;;;;;;;;4988413;28;99409;-77
2023/01/02 06:50:40;;;;;;;4.72;4.43;;;;;;;;;;4986423;28;99137;-77
2023/01/02 06:53:06;;;;;;;6.00;5.60;;;;;;;;;;4991511;28;98364;-77
2023/01/02 06:55:33;;;;;;;6.15;5.63;;;;;;;;;;4987425;28;99166;-78
2023/01/02 06:57:59;;;;;;;7.90;5.45;;;;;;;;;;4987612;28;98245;-77
2023/01/02 07:00:35;;;;;;;6.10;5.60;;;;;;;;;;4987353;28;98749;-77
2023/01/02 07:03:01;;;;;;;6.20;5.70;;;;;;;;;;4987522;28;100162;-77
2023/01/02 07:05:28;;;;;;;6.15;5.70;;;;;;;;;;4986941;28;98337;-77
2023/01/02 07:07:54;;;;;;;6.20;5.80;;;;;;;;;;4988379;28;98449;-77
2023/01/02 07:10:21;;;;;;;6.22;5.82;;;;;;;;;;4987180;28;99038;-77
2023/01/02 07:12:47;;;;;;;7.35;6.65;;;;;;;;;;4990754;28;98367;-77
2023/01/02 07:15:13;;;;;;;7.13;6.18;;;;;;;;;;4986502;28;99113;-76
2023/01/02 07:17:40;;;;;;;6.13;5.53;;;;;;;;;;4986573;28;98319;-77
2023/01/02 07:20:06;;;;;;;5.70;5.20;;;;;;;;;;4987871;28;99439;-78
2023/01/02 07:22:32;;;;;;;6.85;5.05;;;;;;;;;;4986868;28;99186;-76
2023/01/02 07:25:00;;;;;;;6.65;5.50;;;;;;;;;;4987445;28;98401;-78
2023/01/02 07:27:29;;;;;;;8.13;5.18;;;;;;;;;;4987576;28;99141;-77
2023/01/02 07:29:57;;;;;;;5.45;4.68;;;;;;;;;;4987704;28;99052;-77
2023/01/02 07:32:24;;;;;;;5.63;5.07;;;;;;;;;;4986654;28;98665;-77
2023/01/02 07:34:53;;;;;;;7.03;5.32;;;;;;;;;;4990684;28;99567;-77
2023/01/02 07:37:19;;;;;;;5.70;5.05;;;;;;;;;;4987281;28;99080;-77
2023/01/02 07:39:45;;;;;;;5.93;5.03;;;;;;;;;;4985632;28;99962;-77
2023/01/02 07:42:12;;;;;;;7.28;3.92;;;;;;;;;;4987520;28;98976;-77
2023/01/02 07:44:38;;;;;;;4.28;3.72;;;;;;;;;;4986732;28;98281;-77
2023/01/02 07:47:04;;;;;;;4.15;3.50;;;;;;;;;;4986440;28;98618;-77
2023/01/02 07:49:31;;;;;;;4.93;3.85;;;;;;;;;;4987029;28;99440;-77
2023/01/02 07:51:57;;;;;;;5.85;4.07;;;;;;;;;;4987041;28;98289;-77
2023/01/02 07:54:23;;;;;;;4.00;3.60;;;;;;;;;;4986087;28;99375;-77
2023/01/02 07:56:51;;;;;;;4.47;4.07;;;;;;;;;;4990319;28;100315;-77
2023/01/02 07:59:18;;;;;;;3.83;3.38;;;;;;;;;;4987461;28;99067;-77
2023/01/02 08:01:44;;;;;;;4.85;3.35;;;;;;;;;;4985909;28;99062;-77
2023/01/02 08:04:12;;;;;;;4.72;3.60;;;;;;;;;;4985972;28;98281;-77
2023/01/02 08:06:40;;;;;;;6.00;3.65;;;;;;;;;;4985954;28;99387;-77
2023/01/02 08:09:06;;;;;;;6.43;3.22;;;;;;;;;;4986109;28;100316;-77
2023/01/02 08:11:32;;;;;;;3.80;2.88;;;;;;;;;;4986170;28;98277;-77
2023/01/02 08:13:59;;;;;;;5.90;2.95;;;;;;;;;;4988653;28;98737;-77
2023/01/02 08:16:25;;;;;;;8.15;3.88;;;;;;;;;;4989821;28;99050;-77
2023/01/02 08:18:54;;;;;;;7.45;3.10;;;;;;;;;;4993595;28;98628;-77
2023/01/02 08:21:21;;;;;;;6.63;4.32;;;;;;;;;;4989757;28;99928;-76
2023/01/02 08:23:47;;;;;;;5.22;3.10;;;;;;;;;;4989486;28;98301;-76
2023/01/02 08:26:14;;;;;;;8.52;3.35;;;;;;;;;;4989904;28;98734;-76
2023/01/02 08:28:40;;;;;;;4.82;3.05;;;;;;;;;;4988223;28;100287;-76
2023/01/02 08:31:10;;;;;;;6.47;3.08;;;;;;;;;;4989703;28;98329;-75
2023/01/02 08:33:37;;;;;;;6.45;3.50;;;;;;;;;;4989944;28;98533;-76
2023/01/02 08:36:03;;;;;;;4.03;3.03;;;;;;;;;;4989119;28;100088;-76
2023/01/02 08:38:30;;;;;;;4.00;3.13;;;;;;;;;;4989554;28;98367;-77
2023/01/02 08:40:57;;;;;;;4.22;3.30;;;;;;;;;;4992845;28;99499;-77
2023/01/02 08:43:24;;;;;;;8.05;3.15;;;;;;;;;;4988797;28;98444;-77
2023/01/02 08:45:50;;;;;;;6.10;3.47;;;;;;;;;;4990010;28;98652;-77
2023/01/02 08:48:17;;;;;;;4.97;3.08;;;;;;;;;;4989746;28;99423;-77
2023/01/02 08:50:47;;;;;;;6.05;3.65;;;;;;;;;;4988884;28;98838;-77
2023/01/02 08:53:13;;;;;;;15.63;4.72;;;;;;;;;;4988672;28;99906;-77
2023/01/02 08:55:40;;;;;;;16.13;7.20;;;;;;;;;;4989651;28;100191;-77
2023/01/02 08:58:06;;;;;;;6.78;4.28;;;;;;;;;;4989294;28;98345;-77
2023/01/02 09:00:32;;;;;;;6.72;3.72;;;;;;;;;;4989546;28;99504;-76
2023/01/02 09:02:59;;;;;;;5.97;2.65;;;;;;;;;;4991865;28;100207;-76
2023/01/02 09:05:29;;;;;;;5.70;2.72;;;;;;;;;;4989067;28;99687;-76
2023/01/02 09:07:56;;;;;;;5.63;2.40;;;;;;;;;;4989274;28;99816;-76
2023/01/02 09:10:22;;;;;;;2.35;2.13;;;;;;;;;;4989219;28;98315;-77
2023/01/02 09:12:49;;;;;;;7.60;2.40;;;;;;;;;;4989848;28;98466;-77
2023/01/02 09:15:15;;;;;;;3.75;3.03;;;;;;;;;;4989113;28;100094;-76
2023/01/02 09:17:42;;;;;;;4.57;2.70;;;;;;;;;;4987705;28;98278;-77
2023/01/02 09:20:08;;;;;;;4.55;2.58;;;;;;;;;;4989619;28;99027;-77
2023/01/02 09:22:35;;;;;;;5.60;2.65;;;;;;;;;;4992051;28;98984;-77
2023/01/02 09:25:02;;;;;;;3.88;2.90;;;;;;;;;;4987409;28;98878;-77
2023/01/02 09:27:28;;;;;;;3.13;2.47;;;;;;;;;;4988777;28;100384;-77
2023/01/02 09:29:55;;;;;;;7.10;2.42;;;;;;;;;;4989134;28;98244;-76
2023/01/02 09:32:21;;;;;;;9.27;3.45;;;;;;;;;;4988554;28;99375;-77
2023/01/02 09:34:49;;;;;;;13.43;5.00;;;;;;;;;;4988936;28;99995;-75
2023/01/02 09:37:16;;;;;;;4.47;2.75;;;;;;;;;;4989105;28;98298;-75
2023/01/02 09:39:42;;;;;;;3.35;2.95;;;;;;;;;;4988309;28;99865;-76
2023/01/02 09:42:12;;;;;;;5.40;3.50;;;;;;;;;;4988066;28;100012;-76
2023/01/02 09:44:41;;;;;;;8.38;3.72;;;;;;;;;;4992173;28;98349;-76
2023/01/02 09:47:12;;;;;;;8.27;3.80;;;;;;;;;;4988317;28;100130;-76
2023/01/02 09:49:49;;;;;;;4.72;3.17;;;;;;;;;;4988898;28;98248;-76
2023/01/02 09:52:25;;;;;;;5.43;3.42;;;;;;;;;;4988881;28;99857;-76
2023/01/02 09:54:51;;;;;;;6.22;3.58;;;;;;;;;;4989731;28;99033;-77
2023/01/02 09:57:18;;;;;;;6.78;3.28;;;;;;;;;;4991073;28;98258;-77
2023/01/02 09:59:49;;;;;;;8.10;3.78;;;;;;;;;;4989639;28;98902;-77
2023/01/02 10:02:34;;;;;;;4.82;3.50;;;;;;;;;;4990323;28;99781;-76
2023/01/02 10:05:03;;;;;;;6.35;4.38;;;;;;;;;;4991943;28;98332;-77
2023/01/02 10:07:42;;;;;;;8.55;3.78;;;;;;;;;;4992727;28;99333;-76
2023/01/02 10:10:18;;;;;;;10.40;4.13;;;;;;;;;;4988608;28;98563;-77
2023/01/02 10:12:44;;;;;;;5.07;3.63;;;;;;;;;;4988295;28;99869;-77
2023/01/02 10:15:14;;;;;;;9.20;4.63;;;;;;;;;;4987752;28;100331;-77
2023/01/02 10:17:47;;;;;;;8.38;4.72;;;;;;;;;;4988331;28;98322;-76
2023/01/02 10:20:13;;;;;;;;;;;;;;;;;;4989056;28;98644;-76
2023/01/02 10:22:48;;;;;;;5.28;3.05;;;;;;;;;;4987510;28;117921;-76
2023/01/02 10:25:22;;;;;;;5.00;3.23;;;;;;;;;;4988697;28;98269;-76
2023/01/02 10:27:51;;;;;;;6.95;2.67;;;;;;;;;;4988066;28;98681;-77
2023/01/02 10:30:19;;;;;;;8.65;3.00;;;;;;;;;;4991496;28;100182;-77
2023/01/02 10:32:50;;;;;;;4.82;2.08;;;;;;;;;;4987220;28;99505;-76
2023/01/02 10:35:25;;;;;;;3.30;1.92;;;;;;;;;;4986885;28;100323;-76
2023/01/02 10:37:53;;;;;;;6.70;1.90;;;;;;;;;;4988139;28;98289;-77
2023/01/02 10:40:19;;;;;;;6.57;2.22;;;;;;;;;;4988135;28;98410;-76
2023/01/02 10:42:47;;;;;;;4.30;1.65;;;;;;;;;;4986884;28;99948;-75
2023/01/02 10:45:15;;;;;;;9.50;1.73;;;;;;;;;;4987739;28;98510;-76
2023/01/02 10:47:41;;;;;;;6.28;1.73;;;;;;;;;;4987878;28;99522;-76
2023/01/02 10:50:13;;;;;;;7.22;1.50;;;;;;;;;;4987295;28;100109;-76
2023/01/02 10:52:44;;;;;;;9.63;3.53;;;;;;;;;;4991109;28;98258;-76
2023/01/02 10:55:11;;;;;;;6.55;1.48;;;;;;;;;;4987521;28;99089;-76
2023/01/02 10:57:39;;;;;;;5.28;1.60;;;;;;;;;;4986027;28;98288;-76
2023/01/02 11:00:07;;;;;;;3.50;1.83;;;;;;;;;;4987613;28;101243;-76
2023/01/02 11:02:37;;;;;;;10.73;2.13;;;;;;;;;;4986806;28;98919;-76
2023/01/02 11:05:06;;;;;;;6.47;1.75;;;;;;;;;;4987534;28;98473;-76
2023/01/02 11:07:34;;;;;;;3.15;1.50;;;;;;;;;;4987067;28;98822;-76
2023/01/02 11:10:02;;;;;;;5.43;1.70;;;;;;;;;;4986719;28;99172;-76
2023/01/02 11:12:31;;;;;;;6.20;1.90;;;;;;;;;;4987063;28;98336;-76
2023/01/02 11:15:08;;;;;;;10.43;1.88;;;;;;;;;;4990482;28;98690;-76
2023/01/02 11:17:39;;;;;;;4.22;1.85;;;;;;;;;;4987446;28;98475;-75
2023/01/02 11:20:18;;;;;;;7.93;1.98;;;;;;;;;;4987318;28;99673;-76
2023/01/02 11:22:45;;;;;;;10.82;1.95;;;;;;;;;;4986012;28;99854;-76
2023/01/02 11:25:18;;;;;;;5.43;1.77;;;;;;;;;;4986905;28;98991;-76
2023/01/02 11:27:45;;;;;;;12.68;2.50;;;;;;;;;;4987212;28;100074;-76
2023/01/02 11:30:26;;;;;;;3.97;1.63;;;;;;;;;;4987522;28;100223;-76
2023/01/02 11:33:02;;;;;;;5.15;1.73;;;;;;;;;;4986690;28;98290;-76
2023/01/02 11:35:45;;;;;;;9.82;2.30;;;;;;;;;;4990254;28;98444;-76
2023/01/02 11:38:11;;;;;;;;;;;;;;;;;;4987037;28;98445;-76
2023/01/02 11:40:49;;;;;;;8.40;1.70;;;;;;;;;;4986385;28;129541;-76
2023/01/02 11:46:05;;;;;;;5.35;1.55;;;;;;;;;;4986402;28;99050;-76
2023/01/02 11:48:32;;;;;;;8.35;1.52;;;;;;;;;;4985346;28;99850;-77
2023/01/02 11:50:58;;;;;;;10.48;2.10;;;;;;;;;;4986616;28;98999;-76
2023/01/02 11:53:32;;;;;;;7.95;1.88;;;;;;;;;;4986230;28;98288;-77
2023/01/02 11:56:03;;;;;;;8.85;2.50;;;;;;;;;;4987159;28;98863;-77
2023/01/02 11:58:29;;;;;;;7.18;1.67;;;;;;;;;;4989595;28;100275;-77
2023/01/02 12:01:10;;;;;;;4.85;1.52;;;;;;;;;;4986876;28;98719;-77
2023/01/02 12:03:37;;;;;;;6.53;1.77;;;;;;;;;;4986652;28;100223;-77
2023/01/02 12:06:12;;;;;;;7.07;1.70;;;;;;;;;;4986666;28;98852;-77
2023/01/02 12:08:55;;;;;;;7.20;1.80;;;;;;;;;;4987064;28;98742;-76
2023/01/02 12:11:40;;;;;;;6.28;1.52;;;;;;;;;;4986915;28;99275;-76
2023/01/02 12:14:07;;;;;;;7.07;2.08;;;;;;;;;;4985388;28;98380;-77
2023/01/02 12:16:34;;;;;;;7.70;2.10;;;;;;;;;;4986496;28;98535;-76
2023/01/02 12:19:12;;;;;;;15.55;2.13;;;;;;;;;;4986506;28;99083;-76
2023/01/02 12:21:57;;;;;;;6.13;1.60;;;;;;;;;;4989090;28;98770;-76
2023/01/02 12:24:23;;;;;;;11.32;2.15;;;;;;;;;;4986341;28;100055;-76
2023/01/02 12:26:54;;;;;;;6.85;1.88;;;;;;;;;;4987031;28;98289;-76
2023/01/02 12:29:39;;;;;;;5.65;1.58;;;;;;;;;;4986728;28;99513;-77
2023/01/02 12:32:13;;;;;;;;;;;;;;;;;;4986998;28;100399;-76
2023/01/02 12:34:50;;;;;;;9.63;2.00;;;;;;;;;;4984853;28;121220;-76
2023/01/02 12:37:25;;;;;;;10.73;2.30;;;;;;;;;;4986625;28;99070;-76
2023/01/02 12:40:05;;;;;;;11.68;2.03;;;;;;;;;;4985606;28;100090;-76
2023/01/02 12:42:41;;;;;;;7.80;2.63;;;;;;;;;;4985512;28;98846;-76
2023/01/02 12:45:26;;;;;;;8.57;2.40;;;;;;;;;;4990344;28;98571;-77
2023/01/02 12:48:11;;;;;;;11.88;2.95;;;;;;;;;;4987373;28;98748;-76
2023/01/02 12:50:50;;;;;;;11.15;2.55;;;;;;;;;;4986332;28;99510;-76
2023/01/02 12:53:19;;;;;;;6.72;2.28;;;;;;;;;;4986824;28;100291;-76
2023/01/02 12:55:51;;;;;;;5.72;2.17;;;;;;;;;;4986157;28;98350;-76
2023/01/02 12:58:36;;;;;;;8.10;2.15;;;;;;;;;;4987081;28;98984;-76
2023/01/02 13:01:02;;;;;;;7.82;2.10;;;;;;;;;;4989513;28;100482;-76
2023/01/02 13:03:35;;;;;;;7.53;2.22;;;;;;;;;;4988803;28;98131;-76
2023/01/02 13:06:07;;;;;;;7.88;2.05;;;;;;;;;;4988946;28;98339;-75
2023/01/02 13:08:57;;;;;;;11.73;2.73;;;;;;;;;;4992476;28;98989;-76
2023/01/02 13:11:27;;;;;;;13.82;2.55;;;;;;;;;;4988846;28;98563;-75
2023/01/02 13:13:54;;;;;;;11.05;2.80;;;;;;;;;;4989306;28;100108;-78
2023/01/02 13:16:20;;;;;;;14.57;2.85;;;;;;;;;;4988925;28;98415;-75
2023/01/02 13:19:06;;;;;;;11.10;2.75;;;;;;;;;;4989569;28;99716;-75
2023/01/02 13:21:36;;;;;;;11.65;3.05;;;;;;;;;;4988962;28;100292;-75
2023/01/02 13:24:02;;;;;;;12.75;3.15;;;;;;;;;;4989116;28;98734;-75
2023/01/02 13:26:30;;;;;;;14.55;3.25;;;;;;;;;;4988873;28;99621;-75
2023/01/02 13:29:08;;;;;;;19.80;3.20;;;;;;;;;;4988904;28;99982;-75
2023/01/02 13:31:36;;;;;;;12.35;3.20;;;;;;;;;;4990951;28;98528;-76
2023/01/02 13:34:18;;;;;;;8.27;3.00;;;;;;;;;;4988950;28;99019;-75
2023/01/02 13:36:48;;;;;;;14.93;3.85;;;;;;;;;;4989220;28;98221;-75
2023/01/02 13:39:17;;;;;;;15.68;4.50;;;;;;;;;;4988378;28;98600;-76
2023/01/02 13:44:36;;;;;;;13.02;4.28;;;;;;;;;;4990571;28;98312;-76
2023/01/02 13:47:08;;;;;;;17.02;4.88;;;;;;;;;;4990451;28;99492;-76
2023/01/02 13:49:34;;;;;;;13.63;4.22;;;;;;;;;;4988964;28;99421;-76
2023/01/02 13:52:01;;;;;;;11.35;4.68;;;;;;;;;;4992192;28;98320;-76
2023/01/02 13:54:33;;;;;;;14.15;5.57;;;;;;;;;;4991244;28;99005;-76
2023/01/02 13:57:15;;;;;;;14.55;5.20;;;;;;;;;;4988066;28;98294;-76
2023/01/02 14:00:07;;;;;;;15.45;5.55;;;;;;;;;;4987884;28;98811;-76
2023/01/02 14:02:37;;;;;;;15.40;6.60;;;;;;;;;;4979655;28;98590;-78
2023/01/02 14:05:22;;;;;;;7.45;5.38;;;;;;;;;;4988731;28;98405;-77
2023/01/02 14:07:49;;;;;;;10.25;5.80;;;;;;;;;;4988612;28;100002;-76
2023/01/02 14:10:18;;;;;;;13.10;6.32;;;;;;;;;;4987500;28;99036;-77
2023/01/02 14:12:47;;;;;;;12.35;5.97;;;;;;;;;;4988034;28;98092;-77
2023/01/02 14:15:20;;;;;;;12.88;5.95;;;;;;;;;;4992661;28;98545;-77
2023/01/02 14:17:47;;;;;;;10.68;5.72;;;;;;;;;;4988247;28;98831;-77
2023/01/02 14:20:16;;;;;;;11.82;7.07;;;;;;;;;;4988217;28;98767;-77
2023/01/02 14:22:45;;;;;;;9.60;5.50;;;;;;;;;;4987234;28;99319;-77
2023/01/02 14:25:12;;;;;;;13.88;7.00;;;;;;;;;;4988605;28;98399;-77
2023/01/02 14:27:39;;;;;;;12.88;6.18;;;;;;;;;;4988059;28;98859;-77
2023/01/02 14:30:07;;;;;;;12.55;8.20;;;;;;;;;;4988696;28;98969;-77
2023/01/02 14:32:33;;;;;;;15.68;8.15;;;;;;;;;;4988120;28;98958;-76
2023/01/02 14:35:21;;;;;;;16.65;8.77;;;;;;;;;;4988110;28;98619;-77
2023/01/02 14:37:49;;;;;;;16.67;8.80;;;;;;;;;;4991773;28;99362;-77
2023/01/02 14:40:18;;;;;;;15.30;10.18;;;;;;;;;;4988838;28;98106;-77
2023/01/02 14:45:32;;;;;;;23.90;10.38;;;;;;;;;;4988042;28;98342;-77
2023/01/02 14:48:06;;;;;;;18.38;10.43;;;;;;;;;;4986778;28;99719;-77
2023/01/02 14:50:34;;;;;;;16.77;11.00;;;;;;;;;;4987995;28;99276;-77
2023/01/02 14:53:00;;;;;;;13.32;10.45;;;;;;;;;;4988300;28;98238;-77
2023/01/02 14:55:28;;;;;;;23.65;11.48;;;;;;;;;;4987663;28;99671;-77
2023/01/02 14:57:55;;;;;;;15.90;10.73;;;;;;;;;;4987845;28;99551;-77
2023/01/02 15:00:27;;;;;;;18.35;9.77;;;;;;;;;;4991374;28;98819;-76